Time;durP1;ratioP1;P1;durP2;ratioP2;P2;SDS_P1;SDS_P2;PMS_P1;PMS_P2;Temp;Humidity;BMP_temperature;BMP_pressure;BME280_temperature;BME280_humidity;BME280_pressure;Samples;Min_cycle;Max_cycle;Signal;HPM_P1;HPM_P2
2022/05/09 00:00:09;;;;;;;7.93;6.05;;;16.00;99.90;;;;;;5093420;28;20268;-90
2022/05/09 00:02:39;;;;;;;6.35;5.78;;;16.00;99.90;;;;;;5092731;28;20246;-89
2022/05/09 00:05:10;;;;;;;5.40;5.00;;;15.90;99.90;;;;;;5092959;28;20254;-90
2022/05/09 00:07:38;;;;;;;9.60;7.10;;;15.90;99.90;;;;;;5093308;28;20227;-90
2022/05/09 00:10:07;;;;;;;9.45;6.30;;;15.90;99.90;;;;;;5093023;28;20291;-90
2022/05/09 00:12:36;;;;;;;6.65;6.05;;;15.90;99.90;;;;;;5092912;28;20243;-90
2022/05/09 00:15:05;;;;;;;6.82;6.18;;;15.90;99.90;;;;;;5092716;28;20224;-90
2022/05/09 00:17:34;;;;;;;5.25;4.85;;;15.90;99.90;;;;;;5092838;28;20292;-89
2022/05/09 00:20:04;;;;;;;6.03;5.43;;;15.90;99.90;;;;;;5092966;28;20211;-89
2022/05/09 00:22:43;;;;;;;6.30;5.80;;;15.90;99.90;;;;;;5092702;28;20235;-90
2022/05/09 00:25:12;;;;;;;6.35;5.80;;;15.90;99.90;;;;;;5092755;28;20299;-90
2022/05/09 00:27:40;;;;;;;6.93;6.32;;;15.80;99.90;;;;;;5093098;28;20201;-90
2022/05/09 00:30:09;;;;;;;5.40;5.00;;;15.80;99.90;;;;;;5092325;28;20289;-90
2022/05/09 00:32:37;;;;;;;6.43;5.55;;;15.80;99.90;;;;;;5092836;28;20297;-90
2022/05/09 00:35:09;;;;;;;5.60;5.20;;;15.80;99.90;;;;;;5093307;28;20283;-90
2022/05/09 00:37:37;;;;;;;6.78;6.18;;;15.80;99.90;;;;;;5092927;28;20223;-92
2022/05/09 00:40:08;;;;;;;7.15;6.45;;;15.80;99.90;;;;;;5092470;28;20227;-91
2022/05/09 00:42:39;;;;;;;9.52;5.75;;;15.80;99.90;;;;;;5092780;28;20316;-91
2022/05/09 00:45:09;;;;;;;5.78;5.35;;;15.80;99.90;;;;;;5092778;28;20235;-91
2022/05/09 00:47:37;;;;;;;9.77;6.20;;;15.80;99.90;;;;;;5092958;28;20205;-91
2022/05/09 00:50:09;;;;;;;6.47;5.75;;;15.80;99.90;;;;;;5093040;28;20235;-91
2022/05/09 00:52:41;;;;;;;7.38;5.80;;;15.80;99.90;;;;;;5092478;28;20221;-91
2022/05/09 00:55:14;;;;;;;10.05;6.65;;;15.80;99.90;;;;;;5095579;28;20208;-91
2022/05/09 00:57:50;;;;;;;6.80;6.13;;;15.80;99.90;;;;;;5096582;28;20208;-91
2022/05/09 01:00:21;;;;;;;6.82;6.30;;;15.80;99.90;;;;;;5096387;28;20235;-91
2022/05/09 01:02:59;;;;;;;5.60;5.20;;;15.90;99.90;;;;;;5096583;28;20235;-91
2022/05/09 01:05:29;;;;;;;6.68;6.07;;;15.90;99.90;;;;;;5096511;28;20224;-91
2022/05/09 01:07:59;;;;;;;6.43;5.82;;;15.90;99.90;;;;;;5096393;28;20236;-91
2022/05/09 01:10:30;;;;;;;7.25;6.65;;;15.80;99.90;;;;;;5096068;28;20227;-91
2022/05/09 01:13:01;;;;;;;6.47;5.88;;;15.80;99.90;;;;;;5096935;28;20229;-90
2022/05/09 01:15:30;;;;;;;5.90;5.35;;;15.80;99.90;;;;;;5096286;28;20224;-91
2022/05/09 01:18:01;;;;;;;7.55;6.70;;;15.80;99.90;;;;;;5096142;28;20204;-91
2022/05/09 01:20:31;;;;;;;6.20;5.70;;;15.80;99.90;;;;;;5095918;28;20215;-91
2022/05/09 01:23:03;;;;;;;7.15;6.50;;;15.70;99.90;;;;;;5096259;28;20244;-91
2022/05/09 01:25:32;;;;;;;7.55;6.43;;;15.70;99.90;;;;;;5095942;28;20204;-91
2022/05/09 01:28:01;;;;;;;6.85;6.10;;;15.70;99.90;;;;;;5096252;28;20222;-91
2022/05/09 01:30:36;;;;;;;7.43;6.75;;;15.70;99.90;;;;;;5096008;28;20220;-91
2022/05/09 01:33:10;;;;;;;7.22;6.50;;;15.60;99.90;;;;;;5095940;28;20311;-91
2022/05/09 01:35:45;;;;;;;8.40;7.43;;;15.60;99.90;;;;;;5096084;28;20215;-91
2022/05/09 01:38:23;;;;;;;6.97;6.45;;;15.60;99.90;;;;;;5095964;28;20203;-91
2022/05/09 01:40:51;;;;;;;6.93;6.35;;;15.60;99.90;;;;;;5095406;28;20224;-91
2022/05/09 01:43:34;;;;;;;7.80;7.00;;;15.60;99.90;;;;;;5096176;28;20224;-91
2022/05/09 01:46:03;;;;;;;7.65;6.95;;;15.60;99.90;;;;;;5095830;28;20301;-91
2022/05/09 01:51:17;;;;;;;6.95;6.40;;;15.60;99.90;;;;;;5095487;28;20291;-91
2022/05/09 01:53:50;;;;;;;7.40;6.75;;;15.60;99.90;;;;;;5095608;28;20248;-91
2022/05/09 01:56:19;;;;;;;9.02;7.43;;;15.60;99.90;;;;;;5095948;28;20208;-91
2022/05/09 01:58:48;;;;;;;8.05;7.25;;;15.60;99.90;;;;;;5095660;28;20254;-91
2022/05/09 02:01:17;;;;;;;8.02;7.25;;;15.60;99.90;;;;;;5094884;28;20272;-91
2022/05/09 02:03:46;;;;;;;6.97;6.40;;;15.60;99.90;;;;;;5095457;28;20242;-91
2022/05/09 02:06:15;;;;;;;7.00;6.40;;;15.60;99.90;;;;;;5093961;28;20279;-91
2022/05/09 02:08:43;;;;;;;8.48;6.57;;;15.50;99.90;;;;;;5095519;28;20296;-91
2022/05/09 02:11:13;;;;;;;7.85;7.10;;;15.50;99.90;;;;;;5095359;28;20264;-91
2022/05/09 02:13:42;;;;;;;7.15;6.45;;;15.50;99.90;;;;;;5094879;28;20316;-91
2022/05/09 02:16:11;;;;;;;7.80;7.10;;;15.40;99.90;;;;;;5095120;28;20201;-90
2022/05/09 02:18:40;;;;;;;8.55;7.75;;;15.40;99.90;;;;;;5095226;28;20204;-91
2022/05/09 02:21:09;;;;;;;7.93;7.15;;;15.40;99.90;;;;;;5095159;28;20239;-91
2022/05/09 02:23:37;;;;;;;9.23;8.35;;;15.40;99.90;;;;;;5094874;28;20245;-91
2022/05/09 02:26:06;;;;;;;7.28;6.70;;;15.30;99.90;;;;;;5094675;28;20296;-91
2022/05/09 02:28:36;;;;;;;8.02;7.20;;;15.30;99.90;;;;;;5095239;28;20295;-91
2022/05/09 02:31:04;;;;;;;9.02;8.23;;;15.30;99.90;;;;;;5094689;28;20232;-90
2022/05/09 02:33:33;;;;;;;8.38;7.55;;;15.40;99.90;;;;;;5094696;28;20240;-91
2022/05/09 02:36:01;;;;;;;8.15;7.30;;;15.30;99.90;;;;;;5095224;28;20208;-91
2022/05/09 02:38:30;;;;;;;9.32;6.72;;;15.30;99.90;;;;;;5094841;28;20224;-91
2022/05/09 02:40:58;;;;;;;8.05;7.30;;;15.20;99.90;;;;;;5094375;28;20296;-91
2022/05/09 02:43:27;;;;;;;8.02;7.40;;;15.20;99.90;;;;;;5094620;28;20303;-91
2022/05/09 02:46:03;;;;;;;8.65;7.80;;;15.20;99.90;;;;;;5094662;28;20288;-91
2022/05/09 02:48:35;;;;;;;7.43;6.82;;;15.20;99.90;;;;;;5094743;28;20224;-90
2022/05/09 02:51:04;;;;;;;10.63;8.25;;;15.20;99.90;;;;;;5094306;28;20201;-90
2022/05/09 02:53:33;;;;;;;8.05;7.35;;;15.10;99.90;;;;;;5094434;28;20224;-90
2022/05/09 02:56:02;;;;;;;8.82;8.02;;;15.10;99.90;;;;;;5094165;28;20225;-90
2022/05/09 02:58:30;;;;;;;9.77;8.52;;;15.10;99.90;;;;;;5094020;28;20193;-90
2022/05/09 03:01:00;;;;;;;9.63;7.47;;;15.10;99.90;;;;;;5094311;28;20220;-90
2022/05/09 03:06:11;;;;;;;8.63;7.93;;;15.10;99.90;;;;;;5071186;28;20267;-90
2022/05/09 03:08:40;;;;;;;8.20;7.53;;;15.10;99.90;;;;;;5094008;28;20287;-90
2022/05/09 03:11:08;;;;;;;8.65;7.85;;;15.10;99.90;;;;;;5093741;28;20287;-90
2022/05/09 03:13:38;;;;;;;8.38;7.50;;;15.10;99.90;;;;;;5094139;28;20228;-90
2022/05/09 03:16:09;;;;;;;9.77;7.93;;;15.10;99.90;;;;;;5094311;28;20204;-90
2022/05/09 03:18:39;;;;;;;8.73;7.93;;;15.10;99.90;;;;;;5093777;28;20198;-90
2022/05/09 03:21:07;;;;;;;9.20;8.40;;;15.00;99.90;;;;;;5093861;28;20204;-90
2022/05/09 03:23:37;;;;;;;8.20;7.47;;;15.00;99.90;;;;;;5093838;28;20227;-91
2022/05/09 03:26:05;;;;;;;7.55;6.95;;;15.00;99.90;;;;;;5093842;28;20205;-91
2022/05/09 03:28:33;;;;;;;9.77;8.75;;;15.00;99.90;;;;;;5093835;28;20304;-91
2022/05/09 03:31:02;;;;;;;8.50;7.70;;;15.00;99.90;;;;;;5093713;28;20288;-90
2022/05/09 03:33:32;;;;;;;8.27;7.53;;;15.00;99.90;;;;;;5093762;28;20338;-90
2022/05/09 03:36:01;;;;;;;10.35;7.60;;;14.90;99.90;;;;;;5093912;28;20240;-91
2022/05/09 03:38:30;;;;;;;7.70;7.00;;;15.00;99.90;;;;;;5093703;28;20196;-90
2022/05/09 03:40:59;;;;;;;8.00;7.20;;;15.00;99.90;;;;;;5093504;28;20236;-90
2022/05/09 03:43:27;;;;;;;8.13;7.35;;;15.00;99.90;;;;;;5093385;28;20232;-90
2022/05/09 03:45:56;;;;;;;7.88;7.05;;;15.00;99.90;;;;;;5093384;28;20247;-90
2022/05/09 03:48:24;;;;;;;7.57;6.95;;;15.00;99.90;;;;;;5093259;28;20220;-90
2022/05/09 03:50:56;;;;;;;7.65;7.05;;;15.00;99.90;;;;;;5093252;28;20265;-90
2022/05/09 03:53:25;;;;;;;7.85;7.15;;;15.00;99.90;;;;;;5093454;28;20327;-90
2022/05/09 03:55:53;;;;;;;13.77;7.28;;;15.00;99.90;;;;;;5093179;28;20301;-90
2022/05/09 03:58:22;;;;;;;7.97;7.10;;;15.00;99.90;;;;;;5093299;28;20193;-90
2022/05/09 04:00:51;;;;;;;7.57;6.88;;;15.00;99.90;;;;;;5092883;28;20235;-89
2022/05/09 04:03:20;;;;;;;7.60;6.85;;;15.00;99.90;;;;;;5093047;28;20324;-90
2022/05/09 04:05:49;;;;;;;12.13;8.00;;;15.00;99.90;;;;;;5093364;28;20204;-90
2022/05/09 04:08:21;;;;;;;7.65;7.05;;;15.00;99.90;;;;;;5092950;28;20244;-90
2022/05/09 04:10:52;;;;;;;7.97;7.28;;;15.00;99.90;;;;;;5092768;28;20283;-90
2022/05/09 04:13:21;;;;;;;8.82;8.02;;;15.00;99.90;;;;;;5093288;28;20316;-90
2022/05/09 04:18:37;;;;;;;6.85;6.25;;;15.00;99.90;;;;;;5093044;28;20230;-90
2022/05/09 04:21:07;;;;;;;8.73;7.13;;;15.00;99.90;;;;;;5092702;28;20287;-90
2022/05/09 04:23:38;;;;;;;7.65;6.97;;;15.00;99.90;;;;;;5092744;28;20240;-91
2022/05/09 04:26:07;;;;;;;7.13;6.53;;;15.00;99.90;;;;;;5092870;28;20201;-90
2022/05/09 04:28:36;;;;;;;7.57;6.88;;;15.00;99.90;;;;;;5092120;28;20320;-90
2022/05/09 04:31:04;;;;;;;7.47;6.70;;;15.00;99.90;;;;;;5092212;28;20232;-90
2022/05/09 04:33:33;;;;;;;7.70;6.95;;;15.00;99.90;;;;;;5092956;28;20293;-90
2022/05/09 04:36:01;;;;;;;7.85;7.07;;;15.00;99.90;;;;;;5092997;28;20291;-90
2022/05/09 04:38:29;;;;;;;9.00;7.72;;;15.00;99.90;;;;;;5092821;28;20231;-89
2022/05/09 04:40:59;;;;;;;7.35;6.63;;;15.10;99.90;;;;;;5092687;28;20287;-89
2022/05/09 04:43:30;;;;;;;7.57;6.88;;;15.10;99.90;;;;;;5092882;28;20299;-90
2022/05/09 04:46:00;;;;;;;7.05;6.35;;;15.10;99.90;;;;;;5092954;28;20205;-90
2022/05/09 04:48:29;;;;;;;7.50;6.63;;;15.20;99.90;;;;;;5092451;28;20224;-90
2022/05/09 04:50:58;;;;;;;7.03;6.35;;;15.20;99.90;;;;;;5092103;28;20239;-90
2022/05/09 04:53:27;;;;;;;7.57;6.78;;;15.20;99.90;;;;;;5092576;28;20240;-90
2022/05/09 04:55:57;;;;;;;7.40;6.68;;;15.30;99.90;;;;;;5092317;28;20224;-90
2022/05/09 04:58:28;;;;;;;6.68;6.07;;;15.30;99.90;;;;;;5092370;28;20216;-91
2022/05/09 05:00:56;;;;;;;7.65;6.57;;;15.40;99.90;;;;;;5092524;28;20312;-90
2022/05/09 05:03:26;;;;;;;6.97;6.30;;;15.40;99.90;;;;;;5092421;28;20270;-90
2022/05/09 05:05:54;;;;;;;11.50;7.25;;;15.40;99.90;;;;;;5092654;28;20205;-90
2022/05/09 05:08:23;;;;;;;7.15;6.50;;;15.40;99.90;;;;;;5092340;28;20307;-90
2022/05/09 05:10:53;;;;;;;7.78;6.97;;;15.50;99.90;;;;;;5092168;28;20296;-90
2022/05/09 05:13:22;;;;;;;8.02;7.32;;;15.50;99.90;;;;;;5092682;28;20235;-90
2022/05/09 05:15:54;;;;;;;6.38;5.78;;;15.50;99.90;;;;;;5093158;28;20284;-90
2022/05/09 05:18:24;;;;;;;7.75;6.90;;;15.60;99.90;;;;;;5092786;28;20209;-90
2022/05/09 05:20:53;;;;;;;7.28;6.53;;;15.60;99.90;;;;;;5092241;28;20209;-91
2022/05/09 05:23:21;;;;;;;7.03;6.28;;;15.70;99.90;;;;;;5092469;28;20221;-90
2022/05/09 05:25:50;;;;;;;7.00;6.40;;;15.70;99.90;;;;;;5092171;28;20228;-90
2022/05/09 05:28:19;;;;;;;6.82;5.93;;;15.70;99.90;;;;;;5092120;28;20328;-90
2022/05/09 05:30:49;;;;;;;7.57;6.88;;;15.80;99.90;;;;;;5092408;28;20216;-90
2022/05/09 05:33:20;;;;;;;7.55;6.85;;;15.80;99.90;;;;;;5092320;28;20225;-90
2022/05/09 05:35:48;;;;;;;7.93;7.13;;;15.80;99.90;;;;;;5092462;28;20227;-90
2022/05/09 05:38:16;;;;;;;5.68;5.18;;;15.90;99.90;;;;;;5094215;28;20200;-91
2022/05/09 05:40:45;;;;;;;7.43;6.65;;;15.90;99.90;;;;;;5104647;28;20211;-89
2022/05/09 05:43:15;;;;;;;6.75;6.15;;;15.90;99.90;;;;;;5108204;28;20258;-89
2022/05/09 05:45:46;;;;;;;5.65;5.15;;;16.00;99.90;;;;;;5101685;28;20212;-90
2022/05/09 05:48:15;;;;;;;6.72;6.05;;;16.10;99.90;;;;;;5096492;28;20252;-90
2022/05/09 05:50:45;;;;;;;6.72;5.95;;;16.10;99.90;;;;;;5106709;28;20208;-89
2022/05/09 05:53:13;;;;;;;6.18;5.68;;;16.20;99.90;;;;;;5105107;28;20236;-90
2022/05/09 05:55:41;;;;;;;12.93;6.90;;;16.20;99.90;;;;;;5098449;28;20209;-90
2022/05/09 05:58:10;;;;;;;5.50;5.00;;;16.30;99.90;;;;;;5095998;28;20204;-90
2022/05/09 06:00:38;;;;;;;5.68;5.25;;;16.40;99.90;;;;;;5095741;28;20204;-90
2022/05/09 06:03:08;;;;;;;7.07;6.30;;;16.50;99.90;;;;;;5095393;28;20235;-90
2022/05/09 06:05:41;;;;;;;5.93;4.90;;;16.50;99.90;;;;;;5095374;28;20210;-90
2022/05/09 06:08:11;;;;;;;5.85;5.40;;;16.60;99.90;;;;;;5095705;28;20234;-90
2022/05/09 06:10:39;;;;;;;6.35;5.85;;;16.60;99.90;;;;;;5095062;28;20292;-90
2022/05/09 06:13:11;;;;;;;7.07;6.38;;;16.70;99.90;;;;;;5095401;28;20232;-90
2022/05/09 06:15:40;;;;;;;6.40;5.72;;;16.80;99.90;;;;;;5095342;28;20277;-90
2022/05/09 06:18:12;;;;;;;5.82;5.22;;;16.90;99.90;;;;;;5095271;28;20239;-90
2022/05/09 06:20:43;;;;;;;6.72;5.93;;;17.00;99.90;;;;;;5095132;28;20208;-90
2022/05/09 06:23:16;;;;;;;6.32;5.72;;;17.10;99.90;;;;;;5087350;28;20225;-86
2022/05/09 06:25:46;;;;;;;7.35;5.60;;;17.20;99.90;;;;;;5088245;28;20232;-86
2022/05/09 06:28:16;;;;;;;6.82;5.65;;;17.30;99.90;;;;;;5094217;28;20204;-88
2022/05/09 06:30:47;;;;;;;6.40;5.63;;;17.50;99.90;;;;;;5074330;28;20291;-89
2022/05/09 06:33:22;;;;;;;5.97;5.40;;;17.60;99.90;;;;;;5092078;28;20233;-90
2022/05/09 06:35:52;;;;;;;5.63;5.13;;;17.80;99.90;;;;;;5074995;28;20201;-91
2022/05/09 06:38:23;;;;;;;6.50;5.82;;;17.90;99.90;;;;;;5074414;28;20209;-91
2022/05/09 06:40:53;;;;;;;6.03;5.32;;;18.00;99.90;;;;;;5078072;28;20197;-92
2022/05/09 06:43:25;;;;;;;7.95;5.40;;;18.10;99.90;;;;;;5094959;28;20224;-95
2022/05/09 06:53:26;;;;;;;10.80;4.85;;;18.60;99.90;;;;;;5093176;28;20232;-85
2022/05/09 06:56:00;;;;;;;5.43;4.93;;;18.80;99.90;;;;;;5093403;28;20199;-86
2022/05/09 06:58:28;;;;;;;5.25;4.85;;;19.00;99.90;;;;;;5086336;28;20279;-86
2022/05/09 07:00:56;;;;;;;4.55;4.15;;;19.10;99.90;;;;;;5093102;28;20197;-86
2022/05/09 07:03:27;;;;;;;5.45;5.05;;;19.30;99.90;;;;;;5093767;28;20236;-86
2022/05/09 07:05:56;;;;;;;7.25;4.47;;;19.30;99.90;;;;;;5088296;28;20237;-86
2022/05/09 07:08:32;;;;;;;7.55;5.55;;;19.40;99.90;;;;;;5091321;28;20197;-86
2022/05/09 07:11:01;;;;;;;5.85;5.32;;;19.50;99.90;;;;;;5073267;28;20228;-86
2022/05/09 07:13:41;;;;;;;5.05;4.55;;;19.40;99.90;;;;;;5078135;28;20216;-86
2022/05/09 07:16:11;;;;;;;5.38;4.82;;;19.50;99.90;;;;;;5081537;28;20292;-86
2022/05/09 07:18:42;;;;;;;5.47;4.18;;;19.40;99.90;;;;;;5073080;28;20297;-86
2022/05/09 07:21:11;;;;;;;7.45;5.03;;;19.40;99.90;;;;;;5091826;28;20196;-86
2022/05/09 07:23:42;;;;;;;5.05;4.63;;;19.50;99.90;;;;;;5093649;28;20292;-86
2022/05/09 07:26:10;;;;;;;5.00;4.60;;;19.60;99.90;;;;;;5075438;28;20205;-86
2022/05/09 07:28:42;;;;;;;4.90;4.50;;;19.80;99.90;;;;;;5085244;28;20204;-86
2022/05/09 07:31:12;;;;;;;4.40;4.10;;;19.90;99.90;;;;;;5075408;28;20216;-86
2022/05/09 07:33:40;;;;;;;5.43;4.93;;;20.20;99.90;;;;;;5093332;28;20281;-86
2022/05/09 07:36:08;;;;;;;7.93;4.85;;;20.50;99.90;;;;;;5092788;28;20215;-86
2022/05/09 07:38:37;;;;;;;5.03;4.63;;;21.10;99.90;;;;;;5091568;28;20283;-86
2022/05/09 07:41:07;;;;;;;6.85;5.30;;;21.50;99.90;;;;;;5093205;28;20227;-86
2022/05/09 07:43:35;;;;;;;5.80;5.28;;;22.30;99.90;;;;;;5084235;28;20244;-87
2022/05/09 07:46:09;;;;;;;4.95;4.43;;;22.70;99.90;;;;;;5109462;28;20247;-87
2022/05/09 07:48:58;;;;;;;4.88;4.30;;;23.50;99.90;;;;;;5105620;28;20304;-85
2022/05/09 07:51:28;;;;;;;4.90;4.53;;;24.20;99.90;;;;;;5093108;28;20208;-88
2022/05/09 07:53:57;;;;;;;4.55;4.15;;;24.80;99.90;;;;;;5093170;28;20228;-88
2022/05/09 07:56:27;;;;;;;4.68;4.28;;;25.80;99.90;;;;;;5093605;28;20208;-88
2022/05/09 07:58:55;;;;;;;4.43;4.03;;;25.90;99.50;;;;;;5094030;28;20204;-86
2022/05/09 08:01:28;;;;;;;5.13;4.72;;;26.00;99.90;;;;;;5092860;28;20204;-91
2022/05/09 08:04:06;;;;;;;5.05;4.22;;;25.00;98.20;;;;;;5092312;28;20275;-90
2022/05/09 08:06:36;;;;;;;4.15;3.75;;;25.50;99.90;;;;;;5102074;28;20188;-87
2022/05/09 08:09:05;;;;;;;6.25;4.75;;;26.50;99.90;;;;;;5113306;28;20199;-88
2022/05/09 08:11:35;;;;;;;4.45;4.05;;;28.00;95.50;;;;;;5113548;28;20235;-87
2022/05/09 08:14:03;;;;;;;4.60;4.20;;;28.40;93.00;;;;;;5098693;28;20268;-88
2022/05/09 08:16:32;;;;;;;4.55;4.15;;;29.30;94.60;;;;;;5092692;28;20278;-88
2022/05/09 08:19:02;;;;;;;7.10;4.38;;;29.90;90.70;;;;;;5092523;28;20199;-88
2022/05/09 08:21:31;;;;;;;5.10;4.60;;;30.70;86.60;;;;;;5092817;28;20200;-88
2022/05/09 08:24:00;;;;;;;5.07;4.63;;;30.70;81.40;;;;;;5092812;28;20224;-88
2022/05/09 08:26:28;;;;;;;4.80;4.10;;;30.80;81.10;;;;;;5092479;28;20204;-88
2022/05/09 08:28:58;;;;;;;5.13;4.72;;;31.40;85.50;;;;;;5092652;28;20203;-88
2022/05/09 08:31:27;;;;;;;7.47;4.22;;;31.20;76.60;;;;;;5091785;28;20285;-88
2022/05/09 08:33:57;;;;;;;4.90;4.50;;;30.90;77.70;;;;;;5095568;28;20223;-89
2022/05/09 08:39:12;;;;;;;4.47;4.18;;;29.90;80.40;;;;;;5093048;28;20291;-87
2022/05/09 08:41:55;;;;;;;5.25;4.75;;;29.80;79.90;;;;;;5092382;28;20216;-88
2022/05/09 08:44:56;;;;;;;7.00;4.50;;;29.60;78.60;;;;;;5092005;28;20192;-89
2022/05/09 08:48:10;;;;;;;6.10;4.38;;;29.60;82.00;;;;;;5057546;28;20235;-81
2022/05/09 08:51:13;;;;;;;4.65;4.25;;;29.50;82.20;;;;;;5092148;28;20288;-82
2022/05/09 08:53:44;;;;;;;4.22;3.83;;;29.70;77.00;;;;;;5091836;28;20295;-87
2022/05/09 08:56:17;;;;;;;4.65;4.00;;;30.60;78.70;;;;;;5092521;28;20203;-86
2022/05/09 08:58:51;;;;;;;3.95;3.65;;;31.40;78.20;;;;;;5091043;28;20231;-86
2022/05/09 09:01:26;;;;;;;4.82;4.43;;;31.40;79.20;;;;;;5079717;28;20207;-86
2022/05/09 09:03:59;;;;;;;5.80;4.60;;;31.20;74.60;;;;;;5089377;28;20322;-86
2022/05/09 09:07:00;;;;;;;4.28;3.63;;;31.40;70.90;;;;;;5086512;28;20293;-87
2022/05/09 09:09:40;;;;;;;5.97;4.03;;;32.30;83.00;;;;;;5072603;28;20201;-87
2022/05/09 09:12:17;;;;;;;3.38;3.17;;;32.10;72.10;;;;;;5071923;28;20223;-87
2022/05/09 09:14:55;;;;;;;4.07;3.67;;;31.60;71.60;;;;;;5072269;28;20232;-84
2022/05/09 09:17:37;;;;;;;3.40;3.10;;;31.50;71.80;;;;;;5077559;28;20268;-84
2022/05/09 09:20:14;;;;;;;3.58;3.28;;;31.90;78.80;;;;;;5095870;28;20223;-85
2022/05/09 09:23:06;;;;;;;3.72;3.42;;;32.00;72.90;;;;;;5079718;28;20223;-85
2022/05/09 09:25:41;;;;;;;5.50;4.18;;;32.30;71.80;;;;;;5076912;28;20197;-85
2022/05/09 09:28:13;;;;;;;6.05;3.53;;;31.90;66.40;;;;;;5075631;28;20204;-85
2022/05/09 09:30:43;;;;;;;3.55;3.25;;;31.70;68.20;;;;;;5078601;28;20243;-85
2022/05/09 09:33:15;;;;;;;4.90;4.47;;;31.90;77.50;;;;;;5076648;28;20247;-85
2022/05/09 09:35:48;;;;;;;2.78;2.58;;;31.60;65.20;;;;;;5105472;28;20195;-85
2022/05/09 09:38:41;;;;;;;3.85;3.33;;;31.60;70.40;;;;;;5075588;28;20208;-85
2022/05/09 09:41:21;;;;;;;3.60;3.25;;;31.70;70.50;;;;;;5075608;28;20197;-85
2022/05/09 09:43:54;;;;;;;4.70;4.00;;;32.00;70.00;;;;;;5075944;28;20238;-85
2022/05/09 09:46:23;;;;;;;4.78;4.38;;;32.00;69.30;;;;;;5075536;28;20200;-85
2022/05/09 09:49:05;;;;;;;3.75;3.20;;;31.70;67.00;;;;;;5101136;28;20199;-85
2022/05/09 09:51:45;;;;;;;3.40;3.10;;;31.60;71.10;;;;;;5094568;28;20268;-84
2022/05/09 09:54:18;;;;;;;3.92;3.63;;;31.90;70.30;;;;;;5107085;28;20234;-84
2022/05/09 09:56:46;;;;;;;3.90;3.55;;;32.10;72.80;;;;;;5115953;27;20268;-85
2022/05/09 09:59:21;;;;;;;3.22;3.03;;;32.40;68.60;;;;;;5108821;27;20246;-85
2022/05/09 10:02:07;;;;;;;3.58;3.28;;;32.70;67.40;;;;;;5097788;28;20278;-85
2022/05/09 10:04:37;;;;;;;3.22;2.92;;;33.10;66.50;;;;;;5095425;28;20222;-85
2022/05/09 10:07:07;;;;;;;3.75;3.45;;;32.90;66.60;;;;;;5112245;28;20286;-85
2022/05/09 10:09:39;;;;;;;4.43;3.63;;;32.90;70.10;;;;;;5111228;28;20208;-85
2022/05/09 10:12:21;;;;;;;4.15;3.70;;;32.70;65.60;;;;;;5094347;28;20247;-84
2022/05/09 10:14:50;;;;;;;6.25;3.75;;;32.30;69.10;;;;;;5074682;28;20325;-84
2022/05/09 10:17:22;;;;;;;4.53;4.10;;;32.20;68.70;;;;;;5074743;28;20208;-85
2022/05/09 10:19:53;;;;;;;4.68;4.22;;;32.00;68.30;;;;;;5093135;28;20195;-85
2022/05/09 10:25:17;;;;;;;4.13;3.83;;;31.90;68.10;;;;;;5095035;28;20204;-84
2022/05/09 10:27:46;;;;;;;4.03;3.72;;;31.90;65.70;;;;;;5094076;28;20208;-85
2022/05/09 10:30:31;;;;;;;5.22;3.75;;;31.70;65.50;;;;;;5094498;28;20252;-85
2022/05/09 10:33:08;;;;;;;7.10;4.20;;;31.20;67.70;;;;;;5094707;28;20244;-85
2022/05/09 10:35:41;;;;;;;3.58;3.28;;;30.90;67.50;;;;;;5094692;28;20224;-85
2022/05/09 10:38:16;;;;;;;12.88;3.83;;;30.80;64.60;;;;;;5094730;28;20242;-85
2022/05/09 10:40:48;;;;;;;4.05;3.70;;;30.40;66.30;;;;;;5094330;28;20201;-85
2022/05/09 10:43:25;;;;;;;5.47;3.90;;;30.60;70.10;;;;;;5094563;28;20306;-86
2022/05/09 10:45:55;;;;;;;4.18;3.88;;;30.60;68.10;;;;;;5094447;28;20238;-86
2022/05/09 10:48:29;;;;;;;4.35;3.42;;;30.70;67.50;;;;;;5094353;28;20254;-85
2022/05/09 10:51:05;;;;;;;4.25;3.92;;;30.90;66.60;;;;;;5093787;28;20211;-85
2022/05/09 10:53:41;;;;;;;3.92;3.63;;;30.70;64.80;;;;;;5083047;28;20284;-85
2022/05/09 10:56:14;;;;;;;3.67;3.20;;;30.60;69.40;;;;;;5086555;28;20270;-86
2022/05/09 10:58:48;;;;;;;4.47;4.03;;;30.80;67.10;;;;;;5093818;28;20197;-85
2022/05/09 11:01:21;;;;;;;4.20;3.88;;;30.50;63.00;;;;;;5089285;28;20216;-86
2022/05/09 11:03:53;;;;;;;3.58;3.28;;;30.40;63.90;;;;;;5091609;28;20228;-85
2022/05/09 11:06:34;;;;;;;4.95;3.42;;;30.60;69.20;;;;;;5093684;28;20249;-86
2022/05/09 11:09:32;;;;;;;3.67;3.35;;;31.00;68.50;;;;;;5073620;28;20201;-86
2022/05/09 11:12:18;;;;;;;4.63;3.85;;;31.10;64.00;;;;;;5072976;28;20249;-86
2022/05/09 11:14:58;;;;;;;4.55;4.15;;;31.00;63.90;;;;;;5075006;28;20197;-86
2022/05/09 11:17:57;;;;;;;4.60;4.20;;;30.50;63.20;;;;;;5084772;28;20209;-86
2022/05/09 11:20:32;;;;;;;3.78;3.47;;;30.40;63.80;;;;;;5058723;28;20293;-86
2022/05/09 11:23:22;;;;;;;5.80;4.63;;;29.80;67.60;;;;;;5073345;28;20312;-86
2022/05/09 11:26:01;;;;;;;5.28;4.18;;;29.10;67.20;;;;;;5072549;28;20291;-86
2022/05/09 11:29:02;;;;;;;4.32;3.75;;;28.90;66.50;;;;;;5072989;28;20225;-86
2022/05/09 11:31:40;;;;;;;5.57;4.32;;;29.10;72.10;;;;;;5071188;28;20244;-86
2022/05/09 11:34:26;;;;;;;4.43;4.13;;;29.60;64.60;;;;;;5083539;28;20236;-86
2022/05/09 11:37:10;;;;;;;3.92;3.60;;;29.80;62.30;;;;;;5073389;28;20262;-86
2022/05/09 11:39:51;;;;;;;4.15;3.53;;;30.30;63.40;;;;;;5072897;28;20211;-86
2022/05/09 11:45:33;;;;;;;4.75;3.92;;;30.80;68.50;;;;;;5072657;28;20205;-86
2022/05/09 11:48:10;;;;;;;3.95;3.65;;;30.90;66.10;;;;;;5080904;28;20200;-85
2022/05/09 11:50:47;;;;;;;3.95;3.65;;;31.00;62.80;;;;;;5093473;28;20294;-85
2022/05/09 11:53:18;;;;;;;3.70;3.40;;;30.90;59.50;;;;;;5078830;28;20280;-85
2022/05/09 11:55:48;;;;;;;5.00;4.53;;;31.10;59.30;;;;;;5073947;28;20204;-85
2022/05/09 11:58:17;;;;;;;5.07;3.95;;;30.90;60.40;;;;;;5076079;28;20188;-85
2022/05/09 12:00:54;;;;;;;4.10;3.72;;;30.90;60.00;;;;;;5092489;28;20230;-85
2022/05/09 12:03:59;;;;;;;4.50;3.50;;;30.70;67.10;;;;;;5087574;28;20221;-85
2022/05/09 12:06:39;;;;;;;3.25;3.05;;;30.90;66.00;;;;;;5072531;28;20303;-85
2022/05/09 12:09:11;;;;;;;3.47;3.17;;;31.20;62.70;;;;;;5072416;28;20220;-85
2022/05/09 12:11:51;;;;;;;4.97;3.92;;;31.50;62.00;;;;;;5072196;28;20252;-85
2022/05/09 12:14:50;;;;;;;3.78;3.47;;;31.70;60.10;;;;;;5082148;28;20211;-85
2022/05/09 12:17:36;;;;;;;3.72;3.42;;;31.80;63.30;;;;;;5072637;28;20213;-85
2022/05/09 12:20:10;;;;;;;3.88;3.50;;;31.70;60.10;;;;;;5072418;28;20201;-86
2022/05/09 12:22:44;;;;;;;3.53;3.30;;;31.50;62.90;;;;;;5071888;28;20217;-86
2022/05/09 12:25:33;;;;;;;4.18;3.78;;;31.50;65.10;;;;;;5072825;28;20213;-85
2022/05/09 12:28:06;;;;;;;4.15;3.80;;;31.50;58.90;;;;;;5072260;28;20205;-86
2022/05/09 12:30:46;;;;;;;2.90;2.70;;;31.10;59.20;;;;;;5071935;28;20212;-85
2022/05/09 12:33:24;;;;;;;3.95;3.17;;;31.00;58.60;;;;;;5081324;28;20224;-80
2022/05/09 12:35:55;;;;;;;3.58;3.28;;;31.00;64.10;;;;;;5092391;28;20246;-86
2022/05/09 12:38:26;;;;;;;3.10;2.90;;;30.90;58.70;;;;;;5092208;28;20196;-86
2022/05/09 12:40:59;;;;;;;5.45;3.00;;;30.80;56.00;;;;;;5101702;28;20235;-86
2022/05/09 12:43:31;;;;;;;4.05;3.42;;;30.10;59.20;;;;;;5096218;28;20304;-84
2022/05/09 12:46:11;;;;;;;2.88;2.67;;;29.70;56.90;;;;;;5072553;28;20255;-87
2022/05/09 12:48:42;;;;;;;3.13;2.90;;;29.70;62.10;;;;;;5080989;28;20242;-86
2022/05/09 12:51:13;;;;;;;3.45;2.80;;;29.70;63.30;;;;;;5095084;28;20204;-86
2022/05/09 12:53:42;;;;;;;5.18;3.33;;;29.90;63.10;;;;;;5095848;28;20296;-85
2022/05/09 12:56:22;;;;;;;3.75;2.92;;;29.90;62.00;;;;;;5094670;28;20207;-85
2022/05/09 12:59:01;;;;;;;2.97;2.67;;;30.00;61.50;;;;;;5084815;28;20220;-85
2022/05/09 13:01:30;;;;;;;5.07;3.53;;;29.90;64.20;;;;;;5077515;28;20318;-86
2022/05/09 13:04:21;;;;;;;3.50;3.20;;;29.50;60.30;;;;;;5075901;28;20209;-85
2022/05/09 13:06:52;;;;;;;4.78;3.08;;;28.90;59.90;;;;;;5076053;28;20212;-86
2022/05/09 13:09:23;;;;;;;4.25;3.47;;;28.50;60.20;;;;;;5075853;28;20205;-86
2022/05/09 13:11:56;;;;;;;3.17;2.95;;;28.40;63.30;;;;;;5083271;28;20196;-85
2022/05/09 13:14:29;;;;;;;2.75;2.55;;;28.70;63.30;;;;;;5095663;28;20197;-86
2022/05/09 13:17:00;;;;;;;3.80;2.90;;;28.80;58.70;;;;;;5094168;28;20246;-86
2022/05/09 13:19:30;;;;;;;3.33;3.03;;;28.70;60.60;;;;;;5081247;28;20264;-86
2022/05/09 13:21:59;;;;;;;6.18;3.25;;;28.60;60.80;;;;;;5081419;28;20228;-86
2022/05/09 13:24:30;;;;;;;3.30;3.08;;;28.60;63.80;;;;;;5095704;28;20208;-86
2022/05/09 13:27:01;;;;;;;3.47;3.17;;;28.50;62.20;;;;;;5085414;28;20251;-86
2022/05/09 13:29:33;;;;;;;4.13;2.78;;;27.60;59.60;;;;;;5084997;28;20280;-86
2022/05/09 13:32:03;;;;;;;3.35;3.10;;;27.30;63.20;;;;;;5090663;28;20228;-86
2022/05/09 13:34:35;;;;;;;4.22;3.70;;;27.10;62.60;;;;;;5083838;28;20209;-87
2022/05/09 13:37:05;;;;;;;4.97;3.65;;;26.80;61.90;;;;;;5082166;28;20251;-86